Time;durP1;ratioP1;P1;durP2;ratioP2;P2;SDS_P1;SDS_P2;PMS_P1;PMS_P2;Temp;Humidity;BMP_temperature;BMP_pressure;BME280_temperature;BME280_humidity;BME280_pressure;Samples;Min_cycle;Max_cycle;Signal;HPM_P1;HPM_P2
2021/08/24 10:25:31;;;;;;;6.00;2.92;;;22.70;93.80;;;;;;14899920;22;1336112;-62
2021/08/24 10:31:28;;;;;;;5.22;2.67;;;22.90;91.90;;;;;;14851714;23;20031;-63
2021/08/24 10:37:41;;;;;;;7.32;3.13;;;23.10;91.80;;;;;;14851119;23;20048;-63
2021/08/24 10:43:30;;;;;;;4.55;2.95;;;23.20;91.20;;;;;;14823806;23;20028;-63
2021/08/24 10:49:17;;;;;;;7.07;3.38;;;23.30;91.30;;;;;;14851830;23;20027;-62
2021/08/24 10:55:11;;;;;;;3.20;2.45;;;23.40;90.40;;;;;;14852452;23;20024;-63
2021/08/24 11:01:02;;;;;;;7.63;3.20;;;23.20;87.80;;;;;;14851957;23;20100;-62
2021/08/24 11:06:58;;;;;;;5.95;2.80;;;23.10;86.60;;;;;;14841634;23;20026;-63
2021/08/24 11:12:56;;;;;;;7.35;2.60;;;23.30;87.80;;;;;;14838587;23;20020;-63
2021/08/24 11:18:49;;;;;;;3.85;2.25;;;23.40;83.90;;;;;;14835521;23;20560;-63
2021/08/24 11:24:49;;;;;;;4.83;2.60;;;23.40;82.70;;;;;;14837062;23;20039;-62
2021/08/24 11:30:41;;;;;;;4.40;1.95;;;23.30;83.10;;;;;;14836339;23;20842;-63
2021/08/24 11:36:33;;;;;;;5.27;2.43;;;23.70;80.60;;;;;;14835345;23;20024;-63
2021/08/24 11:42:29;;;;;;;2.90;2.28;;;23.90;78.50;;;;;;14836636;23;20462;-63
2021/08/24 11:48:23;;;;;;;7.90;2.50;;;24.20;75.60;;;;;;14836022;23;20028;-64
2021/08/24 11:54:18;;;;;;;5.20;2.47;;;24.50;74.80;;;;;;14837446;23;20122;-63
2021/08/24 12:00:07;;;;;;;5.70;2.78;;;24.60;74.60;;;;;;14837699;23;20024;-64
2021/08/24 12:06:07;;;;;;;4.65;2.58;;;24.60;72.50;;;;;;14834250;23;20058;-63
2021/08/24 12:11:55;;;;;;;4.07;2.13;;;24.50;71.20;;;;;;14834476;23;20020;-63
2021/08/24 12:17:42;;;;;;;6.90;2.42;;;24.60;70.50;;;;;;14835313;23;20151;-63
2021/08/24 12:23:36;;;;;;;5.72;3.28;;;24.80;70.70;;;;;;14834031;23;20636;-63
2021/08/24 12:29:51;;;;;;;3.58;2.55;;;24.80;70.60;;;;;;14835400;23;20679;-63
2021/08/24 12:35:42;;;;;;;5.80;2.45;;;24.70;69.20;;;;;;14835117;23;20016;-64
2021/08/24 12:41:46;;;;;;;4.97;2.10;;;24.50;71.60;;;;;;14834757;23;20024;-63
2021/08/24 12:47:43;;;;;;;4.22;2.42;;;24.50;71.20;;;;;;14835074;23;20031;-63
2021/08/24 12:53:52;;;;;;;5.35;2.47;;;24.50;68.40;;;;;;14836066;23;20026;-63
2021/08/24 12:59:42;;;;;;;5.57;2.25;;;24.30;68.60;;;;;;14833419;23;20110;-64
2021/08/24 13:05:34;;;;;;;8.57;2.80;;;24.90;69.70;;;;;;14833424;23;20056;-63
2021/08/24 13:11:36;;;;;;;7.03;2.50;;;25.50;68.80;;;;;;14835314;23;20074;-63
2021/08/24 13:17:30;;;;;;;5.20;2.40;;;26.10;66.50;;;;;;14832447;23;20027;-63
2021/08/24 13:23:29;;;;;;;4.50;2.33;;;26.40;65.50;;;;;;14833528;23;20115;-63
2021/08/24 13:29:17;;;;;;;3.63;2.10;;;26.20;64.10;;;;;;14832077;23;20034;-63
2021/08/24 13:35:12;;;;;;;2.45;2.00;;;26.10;64.30;;;;;;14831802;23;20020;-63
2021/08/24 13:41:10;;;;;;;7.55;2.40;;;26.00;64.30;;;;;;14832733;23;20047;-63
2021/08/24 13:47:00;;;;;;;5.90;2.10;;;26.20;62.80;;;;;;14832273;23;20032;-63
2021/08/24 13:52:47;;;;;;;6.93;2.85;;;26.10;61.80;;;;;;14832276;23;20034;-63
2021/08/24 13:58:37;;;;;;;3.42;2.17;;;26.30;60.80;;;;;;14831995;23;20034;-64
2021/08/24 14:04:33;;;;;;;4.68;2.30;;;26.50;61.50;;;;;;14831804;23;20030;-64
2021/08/24 14:10:25;;;;;;;3.10;2.40;;;26.70;60.20;;;;;;14832731;23;20024;-63
2021/08/24 14:16:24;;;;;;;3.78;2.20;;;26.40;61.90;;;;;;14832824;23;20020;-63
2021/08/24 14:22:13;;;;;;;5.50;2.88;;;26.20;62.50;;;;;;14832228;23;20020;-63
2021/08/24 14:28:05;;;;;;;6.55;3.20;;;26.30;63.10;;;;;;14830797;23;20110;-63
2021/08/24 14:33:55;;;;;;;5.23;2.57;;;26.60;61.40;;;;;;14832671;23;20331;-64
2021/08/24 14:39:52;;;;;;;4.00;2.22;;;26.20;62.70;;;;;;14831915;23;20403;-63
2021/08/24 14:45:39;;;;;;;4.80;2.13;;;26.30;63.30;;;;;;14836230;23;20024;-63
2021/08/24 14:51:28;;;;;;;6.45;2.60;;;26.60;61.30;;;;;;14837276;23;20028;-64
2021/08/24 14:57:43;;;;;;;5.30;2.28;;;26.80;59.60;;;;;;14835094;23;20020;-64
2021/08/24 15:03:33;;;;;;;5.68;2.20;;;27.10;59.20;;;;;;14835473;23;20028;-64
2021/08/24 15:09:49;;;;;;;3.63;2.38;;;26.70;59.40;;;;;;14834805;23;20107;-63
2021/08/24 15:15:37;;;;;;;3.50;2.08;;;26.60;59.00;;;;;;14835457;23;20016;-64
2021/08/24 15:21:28;;;;;;;3.70;1.92;;;26.90;59.10;;;;;;14832716;23;20227;-64
2021/08/24 15:27:17;;;;;;;10.38;5.35;;;27.00;58.70;;;;;;14828173;23;20024;-63
2021/08/24 15:33:24;;;;;;;8.07;4.07;;;27.30;58.80;;;;;;14825793;23;20474;-63
2021/08/24 15:39:12;;;;;;;9.77;4.82;;;26.80;57.70;;;;;;14831793;23;20552;-63
2021/08/24 15:45:00;;;;;;;3.80;2.20;;;26.60;57.90;;;;;;14832566;23;20034;-63
2021/08/24 15:50:47;;;;;;;4.07;2.45;;;26.80;58.40;;;;;;14833065;23;20474;-63
2021/08/24 15:56:35;;;;;;;16.23;2.63;;;26.90;57.00;;;;;;14833408;23;20023;-60
2021/08/24 16:02:22;;;;;;;3.55;2.10;;;27.00;57.00;;;;;;14834006;23;20024;-62
2021/08/24 16:08:10;;;;;;;3.47;1.90;;;27.00;56.10;;;;;;14833895;23;20032;-63
2021/08/24 16:13:59;;;;;;;3.60;2.20;;;26.90;55.90;;;;;;14833776;23;20026;-63
2021/08/24 16:19:47;;;;;;;3.78;2.10;;;27.30;56.60;;;;;;14834616;23;20016;-63
2021/08/24 16:25:35;;;;;;;3.35;1.90;;;28.60;53.80;;;;;;14832791;23;20029;-63
2021/08/24 16:31:22;;;;;;;3.85;2.15;;;31.00;48.40;;;;;;14831455;23;20354;-63
2021/08/24 16:37:10;;;;;;;5.10;2.03;;;33.20;45.10;;;;;;14834358;23;20028;-63
2021/08/24 16:42:58;;;;;;;4.03;1.88;;;35.00;43.30;;;;;;14833996;23;20024;-63
2021/08/24 16:48:46;;;;;;;3.55;2.00;;;36.00;41.60;;;;;;14834280;23;20024;-62
2021/08/24 16:54:34;;;;;;;3.08;1.70;;;36.60;39.30;;;;;;14836497;23;20066;-64
2021/08/24 17:00:24;;;;;;;6.32;2.28;;;36.60;39.70;;;;;;14833243;23;20028;-63
2021/08/24 17:06:11;;;;;;;19.27;12.93;;;36.60;38.90;;;;;;14825234;23;20023;-64
2021/08/24 17:12:00;;;;;;;3.30;2.33;;;36.70;39.00;;;;;;14831408;23;20026;-64
2021/08/24 17:17:46;;;;;;;2.47;2.28;;;36.80;38.60;;;;;;14831288;23;20034;-64
2021/08/24 17:23:33;;;;;;;2.38;1.90;;;36.70;38.90;;;;;;14831484;23;20020;-63
2021/08/24 17:29:22;;;;;;;7.25;2.67;;;36.30;39.00;;;;;;14835896;23;20020;-63
2021/08/24 17:35:10;;;;;;;2.75;2.15;;;36.20;39.00;;;;;;14833668;23;20040;-63
2021/08/24 17:40:58;;;;;;;5.70;2.00;;;35.90;39.50;;;;;;14831920;23;20482;-63
2021/08/24 17:46:48;;;;;;;3.50;2.25;;;35.30;40.40;;;;;;14833744;23;20024;-63
2021/08/24 17:52:34;;;;;;;30.52;27.23;;;34.10;41.60;;;;;;14824810;23;20031;-61
2021/08/24 17:58:21;;;;;;;24.42;15.00;;;31.60;45.10;;;;;;14829419;23;20028;-61
2021/08/24 18:04:10;;;;;;;5.22;2.38;;;29.40;48.60;;;;;;14828371;23;20578;-61
2021/08/24 18:09:56;;;;;;;3.30;2.58;;;28.20;51.20;;;;;;14830079;23;20035;-61
2021/08/24 18:22:27;;;;;;;7.20;2.08;;;26.60;54.40;;;;;;14857856;23;20011;-62
2021/08/24 18:28:14;;;;;;;3.47;2.50;;;26.10;55.50;;;;;;14828572;23;20416;-63
2021/08/24 18:34:01;;;;;;;6.32;2.63;;;25.60;56.50;;;;;;14842920;23;20027;-62
2021/08/24 18:39:56;;;;;;;9.38;2.65;;;25.30;57.30;;;;;;14718476;22;20124;-82
2021/08/24 18:45:46;;;;;;;7.38;2.72;;;25.10;58.00;;;;;;14628635;23;20041;-83
2021/08/24 18:51:35;;;;;;;4.63;2.35;;;24.90;59.10;;;;;;14633064;23;20129;-82
2021/08/24 18:57:24;;;;;;;7.55;3.00;;;24.80;59.40;;;;;;14638935;23;20032;-82
2021/08/24 19:03:11;;;;;;;8.13;2.65;;;24.50;60.20;;;;;;14635726;23;20025;-82
2021/08/24 19:08:59;;;;;;;5.65;2.88;;;24.40;60.30;;;;;;14632878;23;20040;-84
2021/08/24 19:14:48;;;;;;;8.55;3.17;;;24.30;60.80;;;;;;14636000;23;20022;-83
2021/08/24 19:20:36;;;;;;;7.00;3.83;;;24.20;61.40;;;;;;14631766;23;20026;-81
2021/08/24 19:26:25;;;;;;;4.80;2.67;;;24.10;61.60;;;;;;14624605;23;20429;-81
2021/08/24 19:32:14;;;;;;;4.78;2.47;;;24.10;62.20;;;;;;14616931;23;20045;-83
2021/08/24 19:38:02;;;;;;;7.00;3.25;;;23.90;62.70;;;;;;14631139;23;20072;-84
2021/08/24 19:43:52;;;;;;;13.98;3.53;;;23.80;63.10;;;;;;14642989;23;20025;-87
2021/08/24 19:49:40;;;;;;;7.50;3.65;;;23.70;63.20;;;;;;14645911;23;20484;-84
2021/08/24 19:55:30;;;;;;;5.63;3.45;;;23.70;64.20;;;;;;14641145;23;20087;-85
2021/08/24 20:01:19;;;;;;;8.75;2.85;;;23.70;63.70;;;;;;14638243;23;20097;-83
2021/08/24 20:07:07;;;;;;;9.15;3.28;;;23.60;64.00;;;;;;14647554;23;20024;-86
2021/08/24 20:13:03;;;;;;;3.45;2.63;;;23.60;64.10;;;;;;14649455;23;20485;-85
2021/08/24 20:18:50;;;;;;;6.35;3.25;;;23.60;64.60;;;;;;14643206;23;20028;-87
2021/08/24 20:24:40;;;;;;;4.93;2.85;;;23.50;64.50;;;;;;14640684;23;20557;-87
2021/08/24 20:30:28;;;;;;;7.78;3.15;;;23.50;64.40;;;;;;14638740;23;20096;-87
2021/08/24 20:36:16;;;;;;;5.55;3.13;;;23.50;64.20;;;;;;14640417;23;20454;-88
2021/08/24 20:42:05;;;;;;;8.45;3.47;;;23.40;64.10;;;;;;14650069;23;20025;-87
2021/08/24 20:47:52;;;;;;;10.07;4.00;;;23.40;64.60;;;;;;14645745;23;20914;-86
2021/08/24 20:53:39;;;;;;;8.48;3.60;;;23.30;64.80;;;;;;14641087;23;20094;-85
2021/08/24 20:59:28;;;;;;;7.78;3.40;;;23.30;64.90;;;;;;14633955;23;20021;-83
2021/08/24 21:05:26;;;;;;;6.32;3.70;;;23.20;64.90;;;;;;14633527;23;20021;-86
2021/08/24 21:11:13;;;;;;;5.40;3.20;;;23.20;64.90;;;;;;14637662;23;20036;-87
2021/08/24 21:17:01;;;;;;;6.68;3.92;;;23.20;65.00;;;;;;14636122;23;20485;-86
2021/08/24 21:22:55;;;;;;;8.45;4.25;;;23.00;64.90;;;;;;14634721;23;20534;-86
2021/08/24 21:28:44;;;;;;;9.32;3.92;;;22.90;65.60;;;;;;14634892;23;20428;-85
2021/08/24 21:34:33;;;;;;;166.82;95.45;;;22.90;66.10;;;;;;14627151;23;20021;-81
2021/08/24 21:40:22;;;;;;;9.75;4.30;;;22.90;66.40;;;;;;14633530;23;20052;-82
2021/08/24 21:46:09;;;;;;;7.93;3.88;;;22.70;66.40;;;;;;14630313;23;20500;-82
2021/08/24 21:52:31;;;;;;;7.07;3.60;;;22.70;66.50;;;;;;14635277;23;20029;-82
2021/08/24 21:58:17;;;;;;;7.43;3.83;;;22.60;66.70;;;;;;14631510;23;20022;-82
2021/08/24 22:04:05;;;;;;;8.05;4.00;;;22.70;66.60;;;;;;14633592;23;20104;-80
2021/08/24 22:09:54;;;;;;;8.40;4.07;;;22.70;66.30;;;;;;14635152;23;20064;-83
2021/08/24 22:15:41;;;;;;;6.75;3.63;;;22.70;66.70;;;;;;14635292;23;20029;-82
2021/08/24 22:21:31;;;;;;;7.43;3.67;;;22.60;66.60;;;;;;14635755;23;20053;-83
2021/08/24 22:27:20;;;;;;;10.77;4.35;;;22.60;66.80;;;;;;14633726;23;20107;-84
2021/08/24 22:33:06;;;;;;;8.70;4.18;;;22.50;66.70;;;;;;14634497;23;20497;-84
